createdAt,value
2023-03-06T00:00:10.793Z,1.77
2023-03-06T00:03:19.622Z,1.78
2023-03-06T00:06:11.695Z,1.75
2023-03-06T00:09:03.815Z,1.69
2023-03-06T00:11:55.841Z,1.63
2023-03-06T00:14:38.060Z,1.61
2023-03-06T00:17:31.186Z,1.60
2023-03-06T00:20:23.866Z,1.57
2023-03-06T00:23:16.021Z,1.55
2023-03-06T00:25:59.323Z,1.54
2023-03-06T00:28:51.301Z,1.54
2023-03-06T00:31:46.281Z,1.51
2023-03-06T00:34:38.733Z,1.50
2023-03-06T00:37:10.654Z,1.49
2023-03-06T00:40:02.742Z,1.47
2023-03-06T00:42:54.778Z,1.46
2023-03-06T00:45:46.800Z,1.45
2023-03-06T00:48:38.893Z,1.44
2023-03-06T00:51:30.952Z,1.41
2023-03-06T00:54:22.927Z,1.39
2023-03-06T00:57:14.867Z,1.37
2023-03-06T01:00:08.551Z,1.37
2023-03-06T01:02:50.154Z,1.36
2023-03-06T01:05:42.592Z,1.33
2023-03-06T01:08:34.707Z,1.32
2023-03-06T01:11:26.762Z,1.32
2023-03-06T01:13:58.880Z,1.38
2023-03-06T01:16:51.301Z,1.41
2023-03-06T01:19:43.339Z,1.47
2023-03-06T01:22:24.944Z,1.55
2023-03-06T01:25:16.915Z,1.63
2023-03-06T01:28:08.997Z,1.74
2023-03-06T01:31:01.600Z,1.80
2023-03-06T01:33:53.915Z,1.87
2023-03-06T01:36:46.183Z,1.91
2023-03-06T01:39:38.198Z,1.95
2023-03-06T01:42:32.056Z,1.95
2023-03-06T01:45:58.550Z,1.95
2023-03-06T01:48:53.485Z,1.93
2023-03-06T01:51:49.060Z,1.91
2023-03-06T01:54:45.724Z,1.87
2023-03-06T01:57:43.655Z,1.82
2023-03-06T02:00:36.008Z,1.73
2023-03-06T02:03:29.837Z,1.68
2023-03-06T02:06:21.948Z,1.62
2023-03-06T02:09:15.120Z,1.57
2023-03-06T02:12:10.948Z,1.56
2023-03-06T02:15:03.462Z,1.58
2023-03-06T02:17:55.701Z,1.59
2023-03-06T02:20:51.982Z,1.59
2023-03-06T02:23:51.513Z,1.61
2023-03-06T02:26:45.631Z,1.62
2023-03-06T02:29:36.092Z,1.57
2023-03-06T02:32:28.267Z,1.47
2023-03-06T02:35:25.132Z,1.44
2023-03-06T02:38:19.581Z,1.43
2023-03-06T02:40:55.104Z,1.42
2023-03-06T02:43:49.528Z,1.42
2023-03-06T02:46:41.501Z,1.43
2023-03-06T02:49:33.587Z,1.44
2023-03-06T02:52:25.608Z,1.44
2023-03-06T02:55:17.718Z,1.47
2023-03-06T02:58:10.217Z,1.50
2023-03-06T03:01:02.193Z,1.59
2023-03-06T03:03:54.173Z,1.59
2023-03-06T03:06:46.196Z,1.65
2023-03-06T03:09:38.206Z,1.71
2023-03-06T03:12:30.177Z,1.76
2023-03-06T03:15:22.285Z,1.80
2023-03-06T03:18:14.751Z,1.88
2023-03-06T03:20:51.938Z,1.88
2023-03-06T03:23:44.020Z,1.94
2023-03-06T03:26:36.078Z,2.00
2023-03-06T03:29:28.122Z,2.00
2023-03-06T03:32:20.266Z,1.97
2023-03-06T03:35:13.274Z,1.97
2023-03-06T03:38:05.635Z,1.93
2023-03-06T03:40:57.840Z,1.86
2023-03-06T03:43:49.843Z,1.78
2023-03-06T03:46:41.793Z,1.72
2023-03-06T03:49:33.868Z,1.62
2023-03-06T03:52:25.906Z,1.56
2023-03-06T03:55:17.922Z,1.51
2023-03-06T03:58:07.082Z,1.41
2023-03-06T04:00:59.133Z,1.35
2023-03-06T04:03:51.352Z,1.32
2023-03-06T04:06:43.332Z,1.32
2023-03-06T04:09:35.336Z,1.32
2023-03-06T04:12:27.646Z,1.30
2023-03-06T04:15:19.769Z,1.24
2023-03-06T04:18:12.115Z,1.16
2023-03-06T04:21:04.232Z,1.11
2023-03-06T04:23:56.266Z,1.06
2023-03-06T04:26:37.095Z,1.02
2023-03-06T04:29:29.286Z,0.99
2023-03-06T04:32:21.687Z,0.96
2023-03-06T04:35:14.003Z,0.94
2023-03-06T04:38:06.371Z,1.00
2023-03-06T04:40:58.518Z,1.05
2023-03-06T04:43:50.632Z,1.14
2023-03-06T04:46:42.685Z,1.23
2023-03-06T04:49:17.444Z,1.33
2023-03-06T04:52:10.110Z,1.42
2023-03-06T04:55:04.125Z,1.51
2023-03-06T04:57:56.764Z,1.59
2023-03-06T05:00:48.887Z,1.59
2023-03-06T05:03:40.906Z,1.63
2023-03-06T05:06:32.947Z,1.63
2023-03-06T05:09:24.939Z,1.58
2023-03-06T05:12:16.912Z,1.53
2023-03-06T05:15:00.244Z,1.51
2023-03-06T05:17:52.224Z,1.47
2023-03-06T05:20:44.183Z,1.45
2023-03-06T05:23:38.554Z,1.44
2023-03-06T05:26:30.692Z,1.41
2023-03-06T05:29:22.927Z,1.41
2023-03-06T05:32:15.066Z,1.35
2023-03-06T05:34:49.988Z,1.28
2023-03-06T05:37:42.008Z,1.25
2023-03-06T05:40:34.146Z,1.20
2023-03-06T05:43:10.383Z,1.12
2023-03-06T05:45:53.076Z,1.07
2023-03-06T05:48:46.835Z,1.07
2023-03-06T05:51:39.169Z,1.06
2023-03-06T05:54:14.156Z,1.06
2023-03-06T05:57:07.110Z,1.06
2023-03-06T05:59:59.114Z,1.08
2023-03-06T06:02:51.344Z,1.11
2023-03-06T06:05:32.304Z,1.11
2023-03-06T06:08:24.591Z,1.17
2023-03-06T06:11:01.974Z,1.25
2023-03-06T06:13:54.020Z,1.19
2023-03-06T06:16:46.150Z,1.19
2023-03-06T06:19:38.165Z,1.25
2023-03-06T06:22:30.235Z,1.34
2023-03-06T06:25:22.237Z,1.45
2023-03-06T06:28:14.219Z,1.44
2023-03-06T06:31:12.263Z,1.52
2023-03-06T06:34:04.777Z,1.61
2023-03-06T06:36:57.169Z,1.71
2023-03-06T06:39:49.222Z,1.80
2023-03-06T06:42:41.694Z,1.91
2023-03-06T06:45:33.701Z,1.96
2023-03-06T06:48:25.708Z,2.02
2023-03-06T06:51:18.180Z,2.06
2023-03-06T06:54:00.253Z,2.14
2023-03-06T06:56:52.249Z,2.20
2023-03-06T06:59:44.266Z,2.23
2023-03-06T07:02:36.366Z,2.24
2023-03-06T07:05:28.497Z,2.27
2023-03-06T07:08:20.480Z,2.30
2023-03-06T07:11:15.588Z,2.38
2023-03-06T07:14:07.595Z,2.46
2023-03-06T07:16:59.611Z,2.59
2023-03-06T07:19:51.680Z,2.76
2023-03-06T07:22:50.705Z,2.89
2023-03-06T07:25:43.618Z,3.09
2023-03-06T07:28:51.294Z,3.22
2023-03-06T07:31:44.271Z,3.35
2023-03-06T07:34:36.279Z,3.48
2023-03-06T07:37:29.063Z,3.57
2023-03-06T07:40:13.295Z,3.72
2023-03-06T07:43:18.818Z,3.85
2023-03-06T07:46:11.948Z,3.81
2023-03-06T07:49:03.947Z,3.86
2023-03-06T07:51:56.018Z,3.88
2023-03-06T07:54:48.149Z,3.93
2023-03-06T07:57:40.544Z,3.87
2023-03-06T08:00:33.478Z,3.93
2023-03-06T08:03:25.426Z,4.03
2023-03-06T08:06:20.163Z,4.14
2023-03-06T08:09:12.128Z,4.43
2023-03-06T08:11:54.228Z,4.63
2023-03-06T08:14:46.265Z,4.84
2023-03-06T08:17:38.418Z,4.96
2023-03-06T08:20:30.409Z,5.27
2023-03-06T08:23:22.382Z,5.57
2023-03-06T08:26:16.725Z,5.77
2023-03-06T08:29:08.949Z,6.04
2023-03-06T08:32:01.034Z,6.70
2023-03-06T08:34:53.454Z,7.42
2023-03-06T08:37:45.558Z,7.93
2023-03-06T08:40:37.682Z,8.44
2023-03-06T08:43:29.659Z,8.69
2023-03-06T08:46:05.169Z,8.86
2023-03-06T08:48:57.575Z,9.25
2023-03-06T08:51:49.564Z,9.70
2023-03-06T08:54:41.533Z,10.32
2023-03-06T08:57:16.591Z,10.97
2023-03-06T09:00:12.901Z,11.41
2023-03-06T09:03:05.398Z,11.92
2023-03-06T09:05:57.456Z,12.51
2023-03-06T09:08:51.336Z,13.14
2023-03-06T09:11:43.293Z,13.40
2023-03-06T09:14:25.304Z,13.90
2023-03-06T09:17:17.251Z,14.32
2023-03-06T09:20:05.473Z,14.69
2023-03-06T09:22:57.549Z,14.97
2023-03-06T09:25:54.443Z,15.08
2023-03-06T09:28:46.781Z,15.57
2023-03-06T09:31:22.107Z,16.32
2023-03-06T09:34:14.204Z,16.82
2023-03-06T09:37:06.383Z,17.51
2023-03-06T09:39:58.890Z,18.12
2023-03-06T09:42:51.126Z,18.72
2023-03-06T09:45:43.241Z,19.35
2023-03-06T09:48:29.483Z,19.89
2023-03-06T09:51:22.221Z,20.32
2023-03-06T09:54:15.860Z,20.20
2023-03-06T09:57:15.017Z,20.00
2023-03-06T10:00:14.590Z,20.38
2023-03-06T10:03:18.890Z,21.08
2023-03-06T10:05:58.307Z,21.58
2023-03-06T10:08:53.980Z,22.31
2023-03-06T10:11:49.842Z,22.73
2023-03-06T10:14:48.790Z,22.97
2023-03-06T10:17:43.072Z,23.03
2023-03-06T10:20:24.266Z,23.03
2023-03-06T10:23:30.125Z,23.42
2023-03-06T10:26:26.261Z,23.56
2023-03-06T10:29:32.075Z,23.56
2023-03-06T10:32:46.096Z,23.28
2023-03-06T10:35:49.854Z,22.77
2023-03-06T10:38:43.153Z,22.70
2023-03-06T10:41:36.575Z,22.68
2023-03-06T10:44:37.177Z,22.99
2023-03-06T10:47:32.379Z,23.00
2023-03-06T10:50:30.590Z,22.86
2023-03-06T10:53:29.461Z,22.26
2023-03-06T10:56:30.872Z,21.39
2023-03-06T10:59:28.244Z,20.73
2023-03-06T11:02:29.112Z,20.18
2023-03-06T11:05:23.022Z,19.13
2023-03-06T11:08:23.270Z,18.63
2023-03-06T11:11:36.678Z,18.68
2023-03-06T11:14:29.329Z,18.44
2023-03-06T11:17:32.028Z,18.30
2023-03-06T11:20:30.285Z,17.86
2023-03-06T11:23:36.777Z,17.70
2023-03-06T11:26:33.740Z,17.77
2023-03-06T11:29:33.104Z,17.58
2023-03-06T11:32:27.714Z,17.23
2023-03-06T11:35:24.871Z,16.90
2023-03-06T11:38:21.581Z,16.40
2023-03-06T11:41:22.233Z,15.94
2023-03-06T11:44:14.578Z,15.51
2023-03-06T11:47:15.974Z,14.88
2023-03-06T11:50:18.656Z,14.57
2023-03-06T11:53:15.720Z,14.23
2023-03-06T11:56:00.912Z,13.89
2023-03-06T11:59:17.112Z,13.28
2023-03-06T12:02:26.555Z,12.94
2023-03-06T12:05:33.638Z,12.64
2023-03-06T12:08:44.295Z,12.36
2023-03-06T12:11:36.470Z,11.98
2023-03-06T12:14:25.732Z,11.84
2023-03-06T12:17:23.704Z,11.68
2023-03-06T12:20:28.549Z,11.39
2023-03-06T12:23:43.744Z,11.29
2023-03-06T12:26:45.671Z,11.21
2023-03-06T12:29:48.967Z,11.17
2023-03-06T12:32:38.409Z,11.12
2023-03-06T12:36:06.389Z,11.16
2023-03-06T12:39:10.495Z,11.09
2023-03-06T12:42:26.086Z,10.89
2023-03-06T12:45:28.003Z,10.64
2023-03-06T12:48:26.768Z,10.44
2023-03-06T12:51:21.308Z,10.12
2023-03-06T12:54:15.949Z,9.80
2023-03-06T12:57:09.295Z,9.74
2023-03-06T12:59:48.487Z,9.78
2023-03-06T13:03:07.528Z,9.89
2023-03-06T13:06:13.775Z,10.04
2023-03-06T13:09:23.294Z,10.10
2023-03-06T13:12:27.495Z,9.95
2023-03-06T13:15:38.148Z,9.71
2023-03-06T13:19:11.328Z,9.55
2023-03-06T13:22:14.267Z,9.44
2023-03-06T13:25:50.006Z,9.40
2023-03-06T13:28:49.418Z,9.43
2023-03-06T13:32:08.784Z,9.35
2023-03-06T13:35:00.876Z,9.37
2023-03-06T13:37:53.752Z,9.33
2023-03-06T13:40:35.904Z,9.28
2023-03-06T13:43:25.075Z,9.14
2023-03-06T13:46:26.097Z,9.04
2023-03-06T13:49:22.737Z,8.88
2023-03-06T13:52:23.983Z,8.71
2023-03-06T13:55:11.984Z,8.60
2023-03-06T13:58:10.406Z,8.47
2023-03-06T14:01:24.099Z,8.40
2023-03-06T14:04:25.858Z,8.33
2023-03-06T14:07:29.262Z,8.18
2023-03-06T14:10:27.047Z,8.04
2023-03-06T14:13:15.319Z,7.98
2023-03-06T14:16:18.899Z,7.87
2023-03-06T14:19:19.656Z,7.83
2023-03-06T14:22:19.781Z,7.75
2023-03-06T14:25:05.580Z,7.65
2023-03-06T14:28:05.681Z,7.60
2023-03-06T14:31:06.427Z,7.50
2023-03-06T14:34:00.574Z,7.27
2023-03-06T14:36:43.188Z,7.16
2023-03-06T14:39:38.322Z,7.10
2023-03-06T14:42:31.383Z,6.98
2023-03-06T14:45:24.838Z,6.95
2023-03-06T14:48:18.109Z,6.90
2023-03-06T14:51:15.068Z,6.62
2023-03-06T14:54:07.948Z,6.25
2023-03-06T14:57:07.467Z,5.95
2023-03-06T15:00:01.430Z,5.68
2023-03-06T15:02:42.161Z,5.57
2023-03-06T15:05:34.535Z,5.40
2023-03-06T15:08:30.491Z,5.26
2023-03-06T15:11:22.507Z,5.13
2023-03-06T15:14:20.650Z,5.15
2023-03-06T15:17:24.654Z,5.03
2023-03-06T15:20:42.504Z,4.98
2023-03-06T15:23:39.718Z,4.92
2023-03-06T15:26:34.738Z,4.99
2023-03-06T15:29:24.242Z,5.04
2023-03-06T15:32:29.919Z,5.09
2023-03-06T15:35:37.317Z,5.13
2023-03-06T15:38:36.228Z,5.19
2023-03-06T15:41:33.536Z,5.15
2023-03-06T15:44:25.876Z,5.10
2023-03-06T15:47:17.966Z,5.10
2023-03-06T15:50:16.964Z,5.11
2023-03-06T15:53:09.033Z,5.15
2023-03-06T15:56:02.794Z,5.13
2023-03-06T15:58:55.332Z,5.10
2023-03-06T16:01:47.421Z,5.03
2023-03-06T16:04:39.493Z,4.98
2023-03-06T16:07:31.530Z,4.92
2023-03-06T16:10:25.706Z,4.89
2023-03-06T16:13:21.925Z,4.88
2023-03-06T16:16:22.248Z,4.84
2023-03-06T16:19:26.051Z,4.80
2023-03-06T16:22:18.966Z,4.81
2023-03-06T16:25:11.663Z,4.74
2023-03-06T16:28:04.858Z,4.63
2023-03-06T16:30:56.887Z,4.52
2023-03-06T16:33:48.964Z,4.46
2023-03-06T16:36:41.425Z,4.40
2023-03-06T16:39:33.477Z,4.44
2023-03-06T16:42:25.488Z,4.50
2023-03-06T16:44:59.977Z,4.56
2023-03-06T16:47:52.357Z,4.51
2023-03-06T16:50:45.054Z,4.50
2023-03-06T16:53:37.019Z,4.47
2023-03-06T16:56:29.245Z,4.44
2023-03-06T16:59:21.222Z,4.44
2023-03-06T17:02:13.409Z,4.43
2023-03-06T17:05:05.998Z,4.31
2023-03-06T17:07:58.290Z,4.26
2023-03-06T17:10:50.528Z,4.22
2023-03-06T17:13:42.849Z,4.22
2023-03-06T17:16:23.968Z,4.27
2023-03-06T17:19:16.778Z,4.23
2023-03-06T17:22:08.952Z,4.07
2023-03-06T17:25:03.096Z,3.98
2023-03-06T17:27:53.515Z,3.93
2023-03-06T17:30:45.471Z,3.89
2023-03-06T17:33:27.828Z,3.88
2023-03-06T17:36:03.775Z,3.83
2023-03-06T17:38:58.854Z,3.80
2023-03-06T17:41:35.927Z,3.79
2023-03-06T17:44:27.998Z,3.75
2023-03-06T17:47:20.177Z,3.69
2023-03-06T17:50:13.824Z,3.71
2023-03-06T17:52:48.775Z,3.66
2023-03-06T17:55:29.911Z,3.61
2023-03-06T17:58:07.412Z,3.58
2023-03-06T18:00:44.675Z,3.59
2023-03-06T18:03:38.574Z,3.58
2023-03-06T18:06:32.200Z,3.58
2023-03-06T18:09:05.004Z,3.59
2023-03-06T18:11:57.860Z,3.58
2023-03-06T18:14:50.686Z,3.63
2023-03-06T18:17:32.474Z,3.67
2023-03-06T18:20:24.524Z,3.70
2023-03-06T18:23:16.566Z,3.73
2023-03-06T18:26:14.040Z,3.75
2023-03-06T18:29:06.838Z,3.73
2023-03-06T18:31:59.313Z,3.70
2023-03-06T18:34:51.640Z,3.66
2023-03-06T18:37:44.273Z,3.61
2023-03-06T18:40:36.759Z,3.59
2023-03-06T18:43:28.836Z,3.59
2023-03-06T18:46:20.792Z,3.60
2023-03-06T18:49:13.804Z,3.61
2023-03-06T18:52:06.370Z,3.64
2023-03-06T18:54:58.647Z,3.66
2023-03-06T18:57:50.768Z,3.67
2023-03-06T19:00:43.483Z,3.79
2023-03-06T19:03:18.682Z,3.82
2023-03-06T19:06:13.103Z,3.83
2023-03-06T19:09:05.620Z,3.83
2023-03-06T19:12:00.129Z,3.88
2023-03-06T19:14:48.772Z,3.97
2023-03-06T19:17:40.809Z,4.06
2023-03-06T19:20:32.873Z,4.11
2023-03-06T19:23:24.937Z,4.18
2023-03-06T19:26:18.663Z,4.23
2023-03-06T19:29:10.842Z,4.28
2023-03-06T19:32:03.087Z,4.25
2023-03-06T19:34:58.547Z,4.14
2023-03-06T19:37:50.590Z,4.07
2023-03-06T19:40:27.929Z,4.04
2023-03-06T19:43:20.034Z,3.99
2023-03-06T19:45:54.243Z,3.96
2023-03-06T19:48:35.071Z,3.92
2023-03-06T19:51:27.337Z,3.86
2023-03-06T19:54:23.252Z,3.84
2023-03-06T19:57:15.612Z,3.80
2023-03-06T20:00:09.315Z,3.78
2023-03-06T20:03:01.530Z,3.75
2023-03-06T20:05:49.326Z,3.76
2023-03-06T20:08:41.322Z,3.75
2023-03-06T20:11:33.637Z,3.71
2023-03-06T20:14:25.681Z,3.71
2023-03-06T20:17:17.772Z,3.71
2023-03-06T20:20:12.195Z,3.70
2023-03-06T20:22:47.964Z,3.70
2023-03-06T20:25:40.159Z,3.69
2023-03-06T20:28:32.230Z,3.68
2023-03-06T20:31:26.732Z,3.65
2023-03-06T20:34:01.560Z,3.62
2023-03-06T20:36:53.602Z,3.56
2023-03-06T20:39:45.929Z,3.51
2023-03-06T20:42:29.171Z,3.48
2023-03-06T20:45:21.345Z,3.48
2023-03-06T20:48:14.098Z,3.47
2023-03-06T20:51:08.060Z,3.45
2023-03-06T20:53:52.985Z,3.43
2023-03-06T20:56:48.082Z,3.36
2023-03-06T20:59:40.197Z,3.29
2023-03-06T21:02:32.145Z,3.25
2023-03-06T21:05:24.123Z,3.24
2023-03-06T21:08:16.405Z,3.24
2023-03-06T21:11:08.508Z,3.21
2023-03-06T21:14:00.867Z,3.21
2023-03-06T21:16:52.905Z,3.19
2023-03-06T21:19:46.039Z,3.17
2023-03-06T21:22:38.081Z,3.16
2023-03-06T21:25:30.343Z,3.12
2023-03-06T21:28:22.510Z,3.11
2023-03-06T21:31:16.014Z,3.19
2023-03-06T21:34:08.083Z,3.22
2023-03-06T21:37:00.117Z,3.25
2023-03-06T21:39:52.195Z,3.28
2023-03-06T21:42:44.273Z,3.33
2023-03-06T21:45:36.294Z,3.43
2023-03-06T21:48:28.264Z,3.51
2023-03-06T21:51:23.359Z,3.59
2023-03-06T21:54:15.374Z,3.64
2023-03-06T21:57:07.690Z,3.67
2023-03-06T21:59:59.802Z,3.72
2023-03-06T22:02:52.239Z,3.74
2023-03-06T22:05:44.134Z,3.72
2023-03-06T22:08:36.160Z,3.70
2023-03-06T22:11:31.226Z,3.70
2023-03-06T22:14:06.792Z,3.69
2023-03-06T22:16:58.861Z,3.64
2023-03-06T22:19:52.227Z,3.57
2023-03-06T22:22:44.708Z,3.51
2023-03-06T22:25:37.828Z,3.47
2023-03-06T22:28:27.157Z,3.41
2023-03-06T22:31:21.464Z,3.34
2023-03-06T22:34:13.644Z,3.28
2023-03-06T22:37:05.705Z,3.24
2023-03-06T22:39:57.791Z,3.23
2023-03-06T22:42:49.920Z,3.19
2023-03-06T22:45:41.932Z,3.17
2023-03-06T22:48:34.429Z,3.16
2023-03-06T22:51:27.303Z,3.15
2023-03-06T22:54:19.431Z,3.14
2023-03-06T22:57:11.422Z,3.09
2023-03-06T23:00:03.786Z,3.07
2023-03-06T23:02:53.099Z,3.08
2023-03-06T23:05:45.048Z,3.08
2023-03-06T23:08:37.193Z,3.05
2023-03-06T23:11:21.397Z,3.04
2023-03-06T23:14:15.265Z,3.06
2023-03-06T23:17:07.379Z,3.05
2023-03-06T23:19:44.418Z,3.04
2023-03-06T23:22:18.919Z,3.01
2023-03-06T23:25:11.714Z,2.98
2023-03-06T23:28:03.856Z,2.96
2023-03-06T23:30:55.983Z,2.95
2023-03-06T23:33:48.115Z,2.95
2023-03-06T23:36:40.105Z,2.97
2023-03-06T23:39:33.647Z,3.02
2023-03-06T23:42:25.650Z,3.12
2023-03-06T23:45:17.856Z,3.14
2023-03-06T23:48:09.949Z,3.17
2023-03-06T23:51:05.502Z,3.25
2023-03-06T23:53:59.487Z,3.36
2023-03-06T23:56:51.510Z,3.48
2023-03-06T23:59:45.153Z,3.58
